Time;durP1;ratioP1;P1;durP2;ratioP2;P2;SDS_P1;SDS_P2;PMS_P1;PMS_P2;Temp;Humidity;BMP_temperature;BMP_pressure;BME280_temperature;BME280_humidity;BME280_pressure;Samples;Min_cycle;Max_cycle;Signal;HPM_P1;HPM_P2
2023/08/16 00:00:05;;;;;;;12.32;3.63;;;;;;;;;;5062626;28;20099;-69
2023/08/16 00:02:30;;;;;;;6.03;3.42;;;;;;;;;;5061960;28;20888;-71
2023/08/16 00:04:56;;;;;;;8.10;2.78;;;;;;;;;;5068645;28;20095;-71
2023/08/16 00:07:21;;;;;;;9.03;3.60;;;;;;;;;;5069340;28;20458;-71
2023/08/16 00:09:46;;;;;;;5.57;2.90;;;;;;;;;;5068145;28;20272;-72
2023/08/16 00:12:11;;;;;;;6.10;3.63;;;;;;;;;;5069283;28;20099;-70
2023/08/16 00:14:36;;;;;;;8.07;3.75;;;;;;;;;;5068277;28;20020;-69
2023/08/16 00:17:02;;;;;;;6.43;2.85;;;;;;;;;;5068903;28;20091;-66
2023/08/16 00:19:28;;;;;;;5.75;2.67;;;;;;;;;;5068525;28;20052;-67
2023/08/16 00:21:53;;;;;;;6.45;2.92;;;;;;;;;;5068497;28;20381;-70
2023/08/16 00:24:18;;;;;;;9.73;3.75;;;;;;;;;;5068423;28;20095;-70
2023/08/16 00:26:44;;;;;;;6.68;2.80;;;;;;;;;;5065790;28;20044;-70
2023/08/16 00:29:09;;;;;;;8.03;3.13;;;;;;;;;;5067738;28;20095;-72
2023/08/16 00:31:34;;;;;;;6.18;3.42;;;;;;;;;;5070740;28;20755;-70
2023/08/16 00:33:59;;;;;;;8.68;3.25;;;;;;;;;;5059115;28;20474;-71
2023/08/16 00:36:25;;;;;;;6.10;2.78;;;;;;;;;;5055789;28;20013;-70
2023/08/16 00:38:50;;;;;;;5.50;2.85;;;;;;;;;;5070005;28;20432;-71
2023/08/16 00:41:15;;;;;;;8.55;3.38;;;;;;;;;;5070872;28;20404;-71
2023/08/16 00:43:41;;;;;;;6.25;3.00;;;;;;;;;;5072104;28;20458;-68
2023/08/16 00:46:07;;;;;;;6.20;2.63;;;;;;;;;;5072645;28;20488;-72
2023/08/16 00:48:34;;;;;;;7.25;2.38;;;;;;;;;;5072037;28;20024;-71
2023/08/16 00:50:59;;;;;;;5.15;2.63;;;;;;;;;;5072629;28;20019;-70
2023/08/16 00:53:27;;;;;;;6.18;3.13;;;;;;;;;;5072333;28;20012;-70
2023/08/16 00:55:52;;;;;;;6.38;2.85;;;;;;;;;;5072290;28;20023;-69
2023/08/16 00:58:17;;;;;;;5.72;2.83;;;;;;;;;;5072539;28;20025;-69
2023/08/16 01:00:43;;;;;;;7.35;3.25;;;;;;;;;;5072357;28;20513;-72
2023/08/16 01:03:08;;;;;;;10.90;2.95;;;;;;;;;;5070800;28;20452;-70
2023/08/16 01:05:33;;;;;;;6.28;3.13;;;;;;;;;;5071605;28;20134;-69
2023/08/16 01:07:59;;;;;;;6.47;2.40;;;;;;;;;;5071416;28;20024;-70
2023/08/16 01:10:27;;;;;;;7.53;3.40;;;;;;;;;;5071677;28;20012;-70
2023/08/16 01:12:55;;;;;;;6.20;3.10;;;;;;;;;;5072106;28;20087;-67
2023/08/16 01:15:22;;;;;;;8.38;3.25;;;;;;;;;;5071751;28;20044;-66
2023/08/16 01:17:48;;;;;;;5.50;3.13;;;;;;;;;;5071766;28;20027;-71
2023/08/16 01:20:15;;;;;;;9.73;3.40;;;;;;;;;;5070843;28;20031;-70
2023/08/16 01:22:40;;;;;;;7.78;3.50;;;;;;;;;;5071838;28;20016;-70
2023/08/16 01:25:18;;;;;;;7.63;3.40;;;;;;;;;;5071482;28;20389;-72
2023/08/16 01:27:44;;;;;;;5.18;3.00;;;;;;;;;;5066453;28;20078;-71
2023/08/16 01:30:10;;;;;;;6.97;3.20;;;;;;;;;;5071680;28;20016;-70
2023/08/16 01:32:36;;;;;;;7.85;3.75;;;;;;;;;;5066798;28;20223;-71
2023/08/16 01:35:02;;;;;;;9.20;5.38;;;;;;;;;;5059428;28;20693;-69
2023/08/16 01:37:28;;;;;;;5.57;3.00;;;;;;;;;;5063073;28;20020;-71
2023/08/16 01:39:54;;;;;;;7.45;3.25;;;;;;;;;;5071733;28;20095;-71
2023/08/16 01:42:19;;;;;;;7.00;3.72;;;;;;;;;;5069349;28;20446;-70
2023/08/16 01:44:45;;;;;;;5.82;3.20;;;;;;;;;;5070876;28;20016;-71
2023/08/16 01:47:11;;;;;;;9.60;4.07;;;;;;;;;;5071266;28;20009;-70
2023/08/16 01:49:37;;;;;;;9.75;3.70;;;;;;;;;;5070900;28;20016;-68
2023/08/16 01:52:02;;;;;;;6.45;3.40;;;;;;;;;;5071233;28;20099;-66
2023/08/16 01:56:54;;;;;;;6.30;3.72;;;;;;;;;;5046205;28;20055;-67
2023/08/16 01:59:19;;;;;;;7.63;3.45;;;;;;;;;;5049054;28;20024;-66
2023/08/16 02:01:45;;;;;;;13.80;4.03;;;;;;;;;;5049096;28;20016;-66
2023/08/16 02:04:10;;;;;;;7.35;3.60;;;;;;;;;;5048991;28;20025;-64
2023/08/16 02:06:35;;;;;;;7.20;3.63;;;;;;;;;;5049383;28;20012;-66
2023/08/16 02:09:00;;;;;;;8.65;3.65;;;;;;;;;;5049485;28;20032;-66
2023/08/16 02:11:25;;;;;;;7.97;3.43;;;;;;;;;;5049407;28;20347;-66
2023/08/16 02:13:51;;;;;;;14.20;4.18;;;;;;;;;;5048742;28;20266;-66
2023/08/16 02:16:16;;;;;;;4.82;3.00;;;;;;;;;;5049341;28;20163;-64
2023/08/16 02:18:41;;;;;;;6.93;3.67;;;;;;;;;;5049231;28;20062;-66
2023/08/16 02:21:07;;;;;;;9.55;3.50;;;;;;;;;;5049089;28;20016;-63
2023/08/16 02:23:32;;;;;;;7.15;3.25;;;;;;;;;;5048609;28;20136;-66
2023/08/16 02:25:57;;;;;;;6.90;3.40;;;;;;;;;;5048825;28;20017;-66
2023/08/16 02:28:22;;;;;;;7.22;3.75;;;;;;;;;;5045809;28;20262;-66
2023/08/16 02:30:47;;;;;;;5.70;3.22;;;;;;;;;;5049138;28;20445;-66
2023/08/16 02:33:13;;;;;;;6.95;3.75;;;;;;;;;;5043828;28;20012;-66
2023/08/16 02:35:38;;;;;;;10.05;4.10;;;;;;;;;;5031688;28;20031;-63
2023/08/16 02:38:03;;;;;;;8.23;3.80;;;;;;;;;;5039747;28;20039;-68
2023/08/16 02:40:28;;;;;;;8.02;4.00;;;;;;;;;;5049048;28;20038;-65
2023/08/16 02:42:54;;;;;;;8.13;3.40;;;;;;;;;;5048134;28;20020;-67
2023/08/16 02:45:19;;;;;;;8.60;3.90;;;;;;;;;;5048499;28;20028;-66
2023/08/16 02:47:45;;;;;;;7.50;3.85;;;;;;;;;;5048552;28;20023;-64
2023/08/16 02:50:10;;;;;;;7.70;4.13;;;;;;;;;;5046647;28;20009;-65
2023/08/16 02:52:35;;;;;;;8.25;4.50;;;;;;;;;;5049054;28;20009;-67
2023/08/16 02:55:01;;;;;;;10.52;4.43;;;;;;;;;;5047983;28;20463;-66
2023/08/16 02:57:26;;;;;;;7.30;4.63;;;;;;;;;;5048618;28;20504;-65
2023/08/16 02:59:51;;;;;;;8.27;4.80;;;;;;;;;;5048526;28;20250;-67
2023/08/16 03:02:17;;;;;;;10.13;5.35;;;;;;;;;;5048844;28;20047;-67
2023/08/16 03:04:42;;;;;;;7.88;4.38;;;;;;;;;;5048369;28;20031;-65
2023/08/16 03:07:08;;;;;;;10.10;4.47;;;;;;;;;;5048038;28;20017;-64
2023/08/16 03:09:33;;;;;;;9.32;4.82;;;;;;;;;;5048225;28;20501;-65
2023/08/16 03:11:58;;;;;;;12.48;5.75;;;;;;;;;;5048750;28;20370;-64
2023/08/16 03:14:23;;;;;;;8.73;5.57;;;;;;;;;;5046599;28;20074;-64
2023/08/16 03:16:49;;;;;;;13.00;5.78;;;;;;;;;;5047565;28;20425;-66
2023/08/16 03:19:14;;;;;;;10.57;5.97;;;;;;;;;;5048066;28;20020;-65
2023/08/16 03:21:39;;;;;;;9.98;5.47;;;;;;;;;;5047999;28;20017;-65
2023/08/16 03:24:05;;;;;;;9.52;5.70;;;;;;;;;;5047226;28;20119;-65
2023/08/16 03:26:30;;;;;;;11.43;6.75;;;;;;;;;;5046710;28;20016;-66
2023/08/16 03:28:55;;;;;;;21.13;6.57;;;;;;;;;;5043595;28;20025;-63
2023/08/16 03:31:21;;;;;;;13.25;7.18;;;;;;;;;;5047786;28;20074;-65
2023/08/16 03:33:46;;;;;;;11.75;6.80;;;;;;;;;;5047092;28;20718;-64
2023/08/16 03:36:11;;;;;;;10.98;6.47;;;;;;;;;;5036453;28;20594;-65
2023/08/16 03:38:36;;;;;;;11.15;6.82;;;;;;;;;;5043824;28;20033;-65
2023/08/16 03:41:02;;;;;;;10.52;6.63;;;;;;;;;;5046840;28;20092;-64
2023/08/16 03:43:28;;;;;;;9.95;5.97;;;;;;;;;;5047164;28;20478;-65
2023/08/16 03:45:54;;;;;;;12.05;7.07;;;;;;;;;;5046989;28;20017;-66
2023/08/16 03:48:19;;;;;;;16.67;6.55;;;;;;;;;;5048099;28;20021;-65
2023/08/16 03:50:44;;;;;;;10.57;6.80;;;;;;;;;;5048447;28;20027;-68
2023/08/16 03:53:11;;;;;;;10.63;7.43;;;;;;;;;;5045955;28;20281;-66
2023/08/16 03:55:36;;;;;;;17.15;9.60;;;;;;;;;;5029402;28;20421;-65
2023/08/16 03:58:02;;;;;;;18.52;9.43;;;;;;;;;;5046429;28;20064;-63
2023/08/16 04:00:27;;;;;;;17.05;9.52;;;;;;;;;;5046806;28;20021;-65
2023/08/16 04:02:52;;;;;;;26.83;10.07;;;;;;;;;;5047078;28;20024;-65
2023/08/16 04:05:18;;;;;;;22.80;11.90;;;;;;;;;;5049732;28;20043;-67
2023/08/16 04:07:43;;;;;;;19.27;10.63;;;;;;;;;;5051450;28;20029;-65
2023/08/16 04:10:09;;;;;;;22.20;11.15;;;;;;;;;;5052058;28;20116;-66
2023/08/16 04:12:34;;;;;;;21.52;10.27;;;;;;;;;;5051118;28;20039;-65
2023/08/16 04:14:59;;;;;;;29.02;13.23;;;;;;;;;;5051206;28;20024;-66
2023/08/16 04:17:24;;;;;;;27.10;12.20;;;;;;;;;;5051246;28;20032;-66
2023/08/16 04:19:50;;;;;;;33.40;13.88;;;;;;;;;;5051164;28;20027;-65
2023/08/16 04:22:15;;;;;;;29.23;13.05;;;;;;;;;;5050986;28;20017;-67
2023/08/16 04:24:40;;;;;;;40.47;14.77;;;;;;;;;;5051494;28;20043;-64
2023/08/16 04:27:05;;;;;;;48.20;17.23;;;;;;;;;;5046973;28;20262;-66
2023/08/16 04:29:31;;;;;;;66.00;19.17;;;;;;;;;;5050870;28;20021;-66
2023/08/16 04:31:56;;;;;;;60.30;20.17;;;;;;;;;;5050054;28;20139;-66
2023/08/16 04:34:21;;;;;;;66.72;20.33;;;;;;;;;;5044393;28;20104;-65
2023/08/16 04:36:47;;;;;;;55.60;16.80;;;;;;;;;;5038280;28;20016;-66
2023/08/16 04:39:12;;;;;;;56.38;18.75;;;;;;;;;;5051135;28;20013;-66
2023/08/16 04:41:37;;;;;;;56.72;17.63;;;;;;;;;;5048316;28;20017;-67
2023/08/16 04:44:02;;;;;;;60.85;17.40;;;;;;;;;;5049912;28;20040;-65
2023/08/16 04:46:28;;;;;;;54.45;17.33;;;;;;;;;;5046170;28;20097;-66
2023/08/16 04:48:53;;;;;;;56.75;16.88;;;;;;;;;;5041320;28;20094;-66
2023/08/16 04:51:18;;;;;;;62.28;18.83;;;;;;;;;;5046990;28;20009;-66
2023/08/16 04:53:45;;;;;;;57.28;18.10;;;;;;;;;;5034085;28;20056;-66
2023/08/16 04:56:10;;;;;;;61.13;17.55;;;;;;;;;;5031349;28;20044;-66
2023/08/16 04:58:36;;;;;;;67.53;14.95;;;;;;;;;;5033748;28;20029;-66
2023/08/16 05:01:01;;;;;;;65.55;13.95;;;;;;;;;;5035755;28;20055;-66
2023/08/16 05:03:26;;;;;;;41.03;14.25;;;;;;;;;;5029555;28;20029;-67
2023/08/16 05:06:01;;;;;;;51.65;14.50;;;;;;;;;;5028530;28;20040;-68
2023/08/16 05:08:27;;;;;;;47.80;14.70;;;;;;;;;;5029692;28;20524;-68
2023/08/16 05:10:52;;;;;;;42.15;13.55;;;;;;;;;;5026975;28;20101;-66
2023/08/16 05:13:17;;;;;;;45.50;14.18;;;;;;;;;;5036065;28;20098;-67
2023/08/16 05:15:43;;;;;;;43.35;14.15;;;;;;;;;;5034984;28;20036;-68
2023/08/16 05:18:08;;;;;;;67.80;15.23;;;;;;;;;;5033194;28;20064;-68
2023/08/16 05:20:34;;;;;;;60.63;16.85;;;;;;;;;;5030459;28;20096;-66
2023/08/16 05:22:59;;;;;;;60.15;15.98;;;;;;;;;;5032782;28;20037;-63
2023/08/16 05:25:25;;;;;;;50.17;15.77;;;;;;;;;;5036324;28;20021;-66
2023/08/16 05:27:50;;;;;;;70.75;17.75;;;;;;;;;;5029258;28;20016;-70
2023/08/16 05:30:15;;;;;;;53.05;16.88;;;;;;;;;;5031971;28;20024;-67
2023/08/16 05:32:40;;;;;;;64.72;18.90;;;;;;;;;;5047453;28;20025;-66
2023/08/16 05:35:06;;;;;;;72.82;17.83;;;;;;;;;;5041792;28;20088;-69
2023/08/16 05:37:31;;;;;;;71.40;16.92;;;;;;;;;;5040029;28;20025;-68
2023/08/16 05:39:56;;;;;;;54.03;16.52;;;;;;;;;;5046851;28;20021;-68
2023/08/16 05:42:21;;;;;;;57.55;17.25;;;;;;;;;;5043287;28;20121;-67
2023/08/16 05:44:47;;;;;;;46.78;14.65;;;;;;;;;;5048711;28;20108;-67
2023/08/16 05:47:12;;;;;;;47.42;15.10;;;;;;;;;;5049352;28;20108;-68
2023/08/16 05:49:37;;;;;;;37.33;13.50;;;;;;;;;;5048978;28;20020;-66
2023/08/16 05:52:02;;;;;;;42.42;11.70;;;;;;;;;;5049102;28;20021;-67
2023/08/16 05:54:28;;;;;;;33.13;10.93;;;;;;;;;;5048980;28;20100;-65
2023/08/16 05:56:53;;;;;;;29.83;11.05;;;;;;;;;;5049494;28;20020;-67
2023/08/16 05:59:18;;;;;;;34.80;12.23;;;;;;;;;;5049598;28;20013;-67
2023/08/16 06:01:43;;;;;;;40.42;12.23;;;;;;;;;;5048821;28;20082;-67
2023/08/16 06:04:09;;;;;;;36.78;13.13;;;;;;;;;;5047534;28;20090;-68
2023/08/16 06:06:34;;;;;;;61.13;13.48;;;;;;;;;;5049198;28;20362;-67
2023/08/16 06:08:59;;;;;;;40.28;11.88;;;;;;;;;;5049626;28;20638;-67
2023/08/16 06:11:24;;;;;;;43.47;13.95;;;;;;;;;;5049024;28;20051;-67
2023/08/16 06:13:49;;;;;;;41.25;13.25;;;;;;;;;;5048838;28;20009;-64
2023/08/16 06:16:15;;;;;;;36.23;12.83;;;;;;;;;;5048783;28;20061;-67
2023/08/16 06:18:41;;;;;;;53.72;14.85;;;;;;;;;;5048556;28;20311;-67
2023/08/16 06:21:06;;;;;;;38.63;13.32;;;;;;;;;;5049068;28;20017;-65
2023/08/16 06:23:31;;;;;;;41.10;14.02;;;;;;;;;;5049187;28;20504;-66
2023/08/16 06:25:57;;;;;;;36.80;13.23;;;;;;;;;;5047101;28;20024;-64
2023/08/16 06:28:22;;;;;;;32.75;13.00;;;;;;;;;;5042576;28;20044;-67
2023/08/16 06:30:47;;;;;;;41.08;13.45;;;;;;;;;;5038761;28;20017;-67
2023/08/16 06:33:13;;;;;;;35.90;12.45;;;;;;;;;;5029217;28;20742;-67
2023/08/16 06:35:38;;;;;;;39.58;14.35;;;;;;;;;;5034059;28;20051;-67
2023/08/16 06:38:03;;;;;;;39.75;14.60;;;;;;;;;;5029185;28;20031;-67
2023/08/16 06:40:28;;;;;;;39.45;15.32;;;;;;;;;;5033650;28;20041;-67
2023/08/16 06:42:54;;;;;;;36.92;14.25;;;;;;;;;;5028829;28;20324;-67
2023/08/16 06:45:19;;;;;;;33.70;13.45;;;;;;;;;;5029909;28;20535;-68
2023/08/16 06:47:44;;;;;;;29.80;13.55;;;;;;;;;;5029491;28;20725;-68
2023/08/16 06:50:09;;;;;;;28.48;12.45;;;;;;;;;;5034093;28;20053;-67
2023/08/16 06:52:34;;;;;;;24.10;11.18;;;;;;;;;;5032320;28;20098;-65
2023/08/16 06:55:01;;;;;;;31.00;14.02;;;;;;;;;;5028581;28;20435;-66
2023/08/16 06:57:26;;;;;;;44.67;15.85;;;;;;;;;;5029102;28;20017;-68
2023/08/16 06:59:51;;;;;;;33.35;14.30;;;;;;;;;;5032343;28;20115;-69
2023/08/16 07:02:17;;;;;;;31.25;13.75;;;;;;;;;;5034676;28;20151;-68
2023/08/16 07:04:42;;;;;;;31.83;12.20;;;;;;;;;;5029032;28;20149;-68
2023/08/16 07:07:09;;;;;;;27.70;12.70;;;;;;;;;;5034843;28;20049;-66
2023/08/16 07:09:34;;;;;;;23.80;11.10;;;;;;;;;;5028768;28;20608;-65
2023/08/16 07:12:00;;;;;;;27.08;11.23;;;;;;;;;;5034819;28;20082;-65
2023/08/16 07:14:25;;;;;;;23.25;10.45;;;;;;;;;;5026389;28;20021;-67
2023/08/16 07:16:51;;;;;;;32.88;11.63;;;;;;;;;;5032731;28;20102;-65
2023/08/16 07:19:16;;;;;;;26.77;11.25;;;;;;;;;;5028232;28;20063;-67
2023/08/16 07:21:42;;;;;;;23.63;11.10;;;;;;;;;;5028467;28;20211;-69
2023/08/16 07:24:07;;;;;;;26.63;11.55;;;;;;;;;;5030150;28;20137;-66
2023/08/16 07:26:32;;;;;;;21.70;10.33;;;;;;;;;;5028226;28;20061;-67
2023/08/16 07:28:57;;;;;;;21.95;9.55;;;;;;;;;;5031418;28;20269;-67
2023/08/16 07:31:23;;;;;;;24.55;11.32;;;;;;;;;;5030180;28;20108;-68
2023/08/16 07:33:48;;;;;;;20.83;10.00;;;;;;;;;;5030858;28;20031;-67
2023/08/16 07:36:13;;;;;;;21.17;10.95;;;;;;;;;;5030510;28;20029;-66
2023/08/16 07:38:38;;;;;;;27.00;11.40;;;;;;;;;;5031476;28;20039;-68
2023/08/16 07:41:04;;;;;;;19.98;12.05;;;;;;;;;;5028376;28;20516;-66
2023/08/16 07:43:29;;;;;;;23.75;13.23;;;;;;;;;;5026202;28;20170;-67
2023/08/16 07:45:54;;;;;;;21.00;14.15;;;;;;;;;;5042471;28;20021;-66
2023/08/16 07:48:20;;;;;;;21.13;13.25;;;;;;;;;;5045384;28;20102;-67
2023/08/16 07:50:45;;;;;;;19.23;12.57;;;;;;;;;;5046337;28;20323;-66
2023/08/16 07:53:11;;;;;;;18.88;9.50;;;;;;;;;;5046185;28;20017;-68
2023/08/16 07:55:36;;;;;;;16.55;8.98;;;;;;;;;;5057782;22;20045;-71
2023/08/16 07:58:01;;;;;;;14.20;8.30;;;;;;;;;;5046177;28;20013;-73
2023/08/16 08:00:26;;;;;;;10.43;7.03;;;;;;;;;;5049321;28;20041;-68
2023/08/16 08:02:53;;;;;;;12.65;7.43;;;;;;;;;;5048826;28;20016;-70
2023/08/16 08:05:18;;;;;;;12.27;6.57;;;;;;;;;;5048674;28;20093;-71
2023/08/16 08:07:43;;;;;;;10.98;5.95;;;;;;;;;;5047814;28;20032;-70
2023/08/16 08:10:09;;;;;;;14.40;7.25;;;;;;;;;;5049524;28;20462;-71
2023/08/16 08:12:34;;;;;;;14.05;7.90;;;;;;;;;;5044812;28;20041;-70
2023/08/16 08:15:00;;;;;;;14.27;7.22;;;;;;;;;;5046602;28;20140;-70
2023/08/16 08:17:25;;;;;;;14.10;7.38;;;;;;;;;;5049241;28;20061;-67
2023/08/16 08:19:51;;;;;;;12.65;6.35;;;;;;;;;;5048993;28;20459;-71
2023/08/16 08:22:16;;;;;;;15.85;6.28;;;;;;;;;;5048540;28;20048;-66
2023/08/16 08:24:41;;;;;;;13.20;7.05;;;;;;;;;;5048807;28;20517;-70
2023/08/16 08:27:06;;;;;;;12.38;6.20;;;;;;;;;;5048200;28;20017;-70
2023/08/16 08:29:32;;;;;;;13.60;6.73;;;;;;;;;;5048518;28;20094;-66
2023/08/16 08:31:57;;;;;;;19.27;6.57;;;;;;;;;;5043411;28;20262;-71
2023/08/16 08:34:24;;;;;;;12.77;6.80;;;;;;;;;;5040415;28;20013;-69
2023/08/16 08:36:49;;;;;;;12.13;6.80;;;;;;;;;;5031527;28;20053;-70
2023/08/16 08:39:18;;;;;;;13.98;7.85;;;;;;;;;;5031285;28;20115;-71
2023/08/16 08:41:45;;;;;;;15.30;6.88;;;;;;;;;;5032090;28;20455;-70
2023/08/16 08:44:11;;;;;;;15.43;9.02;;;;;;;;;;5031649;28;20016;-70
2023/08/16 08:46:36;;;;;;;12.75;7.72;;;;;;;;;;5030854;28;20407;-72
2023/08/16 08:49:03;;;;;;;18.60;8.65;;;;;;;;;;5034199;28;20292;-71
2023/08/16 08:51:31;;;;;;;15.00;7.43;;;;;;;;;;5032073;28;20577;-73
2023/08/16 08:53:56;;;;;;;;;;;;;;;;;;5040415;28;20036;-66
2023/08/16 08:56:21;;;;;;;13.20;8.00;;;;;;;;;;5035699;28;19928;-68
2023/08/16 08:58:47;;;;;;;13.48;6.63;;;;;;;;;;5037486;28;20040;-70
2023/08/16 09:01:13;;;;;;;11.27;6.13;;;;;;;;;;5038492;28;20585;-70
2023/08/16 09:03:40;;;;;;;10.65;6.18;;;;;;;;;;5051868;28;20482;-70
2023/08/16 09:06:06;;;;;;;10.82;5.40;;;;;;;;;;5050857;28;20013;-66
2023/08/16 09:08:34;;;;;;;9.38;4.97;;;;;;;;;;5050746;28;20028;-68
2023/08/16 09:10:59;;;;;;;9.07;4.07;;;;;;;;;;5052296;28;20037;-69
2023/08/16 09:13:26;;;;;;;6.40;4.40;;;;;;;;;;5050490;28;20189;-71
2023/08/16 09:15:51;;;;;;;10.10;5.35;;;;;;;;;;5046088;28;20471;-70
2023/08/16 09:18:17;;;;;;;7.68;4.35;;;;;;;;;;5052209;28;20045;-69
2023/08/16 09:20:43;;;;;;;8.13;4.30;;;;;;;;;;5051675;28;20017;-67
2023/08/16 09:23:14;;;;;;;9.93;4.47;;;;;;;;;;5051947;28;20378;-70
2023/08/16 09:25:40;;;;;;;6.40;3.75;;;;;;;;;;5050834;28;20017;-69
2023/08/16 09:28:12;;;;;;;9.25;3.97;;;;;;;;;;5047423;28;20118;-68
2023/08/16 09:30:37;;;;;;;6.43;3.78;;;;;;;;;;5051572;28;20021;-66
2023/08/16 09:33:03;;;;;;;8.75;3.80;;;;;;;;;;5047800;28;20021;-67
2023/08/16 09:35:38;;;;;;;7.35;3.97;;;;;;;;;;5040737;28;20028;-67
2023/08/16 09:38:04;;;;;;;10.32;4.68;;;;;;;;;;5042396;28;20017;-70
2023/08/16 09:40:29;;;;;;;9.65;4.82;;;;;;;;;;5049960;28;20025;-69
2023/08/16 09:42:58;;;;;;;7.43;4.07;;;;;;;;;;5051771;28;20524;-68
2023/08/16 09:45:27;;;;;;;9.32;5.00;;;;;;;;;;5050576;28;20104;-70
2023/08/16 09:47:53;;;;;;;8.68;4.72;;;;;;;;;;5051286;28;20040;-71
2023/08/16 09:50:21;;;;;;;12.05;5.13;;;;;;;;;;5050330;28;20048;-70
2023/08/16 09:52:47;;;;;;;18.80;5.97;;;;;;;;;;5051213;28;20013;-70
2023/08/16 09:55:21;;;;;;;8.40;4.60;;;;;;;;;;5050453;28;20013;-70
2023/08/16 09:57:46;;;;;;;7.75;4.25;;;;;;;;;;5051135;28;20056;-66
2023/08/16 10:00:12;;;;;;;8.00;4.53;;;;;;;;;;5050367;28;20060;-69
2023/08/16 10:02:37;;;;;;;7.80;4.80;;;;;;;;;;5050343;28;20336;-70
2023/08/16 10:05:03;;;;;;;7.30;4.45;;;;;;;;;;5050533;28;20036;-71
2023/08/16 10:07:28;;;;;;;9.68;4.88;;;;;;;;;;5051255;28;20048;-71
2023/08/16 10:09:54;;;;;;;7.45;3.90;;;;;;;;;;5051227;28;20416;-70
2023/08/16 10:12:20;;;;;;;8.80;4.40;;;;;;;;;;5050553;28;20013;-69
2023/08/16 10:14:45;;;;;;;9.40;4.35;;;;;;;;;;5049732;28;20029;-68
2023/08/16 10:17:12;;;;;;;9.30;3.60;;;;;;;;;;5050824;28;20028;-70
2023/08/16 10:19:39;;;;;;;6.47;3.60;;;;;;;;;;5050484;28;20382;-68
2023/08/16 10:22:12;;;;;;;8.73;3.40;;;;;;;;;;5050491;28;20537;-70
2023/08/16 10:24:38;;;;;;;8.35;4.10;;;;;;;;;;5037799;28;20415;-68
2023/08/16 10:27:03;;;;;;;9.93;3.65;;;;;;;;;;5050741;28;20489;-69
2023/08/16 10:29:33;;;;;;;7.13;3.42;;;;;;;;;;5040918;28;20021;-69
2023/08/16 10:32:02;;;;;;;5.97;3.03;;;;;;;;;;5049631;28;20017;-71
2023/08/16 10:34:27;;;;;;;6.70;3.25;;;;;;;;;;5047791;28;20025;-69
2023/08/16 10:36:53;;;;;;;5.60;3.25;;;;;;;;;;5033679;28;20036;-69
2023/08/16 10:39:24;;;;;;;6.07;3.28;;;;;;;;;;5050545;28;20577;-70
2023/08/16 10:41:51;;;;;;;11.02;4.30;;;;;;;;;;5049436;28;20016;-70
2023/08/16 10:44:23;;;;;;;5.05;2.95;;;;;;;;;;5048505;28;20017;-69
2023/08/16 10:46:49;;;;;;;8.80;3.67;;;;;;;;;;5050886;28;20095;-69
2023/08/16 10:49:14;;;;;;;6.93;3.08;;;;;;;;;;5049082;28;20084;-70
2023/08/16 10:51:52;;;;;;;16.30;3.63;;;;;;;;;;5049274;28;20012;-68
2023/08/16 10:54:19;;;;;;;7.15;3.78;;;;;;;;;;5049352;28;20016;-70
2023/08/16 10:56:47;;;;;;;7.40;3.40;;;;;;;;;;5049987;28;20035;-70
2023/08/16 10:59:13;;;;;;;6.30;3.45;;;;;;;;;;5049430;28;20012;-70
2023/08/16 11:01:49;;;;;;;6.95;2.88;;;;;;;;;;5049585;28;20017;-71
2023/08/16 11:04:14;;;;;;;8.63;3.38;;;;;;;;;;5049253;28;20090;-71
2023/08/16 11:06:40;;;;;;;6.47;3.00;;;;;;;;;;5050003;28;20080;-70
2023/08/16 11:09:06;;;;;;;5.55;3.25;;;;;;;;;;5050491;28;20017;-70
2023/08/16 11:11:32;;;;;;;5.57;3.00;;;;;;;;;;5050396;28;20103;-66
2023/08/16 11:14:00;;;;;;;5.20;3.00;;;;;;;;;;5048305;28;20471;-70
2023/08/16 11:16:26;;;;;;;7.70;3.20;;;;;;;;;;5049355;28;20056;-70
2023/08/16 11:18:52;;;;;;;5.90;3.10;;;;;;;;;;5050108;28;20024;-68
2023/08/16 11:21:17;;;;;;;6.95;3.22;;;;;;;;;;5049543;28;20017;-71
2023/08/16 11:23:42;;;;;;;7.47;2.67;;;;;;;;;;5049401;28;20024;-68
2023/08/16 11:26:09;;;;;;;5.65;3.13;;;;;;;;;;5048554;28;20266;-69
2023/08/16 11:28:34;;;;;;;7.05;3.25;;;;;;;;;;5043848;28;20036;-69
2023/08/16 11:31:02;;;;;;;6.88;4.32;;;;;;;;;;5042391;28;20056;-70
2023/08/16 11:33:31;;;;;;;7.25;2.63;;;;;;;;;;5049104;28;20027;-69
2023/08/16 11:35:56;;;;;;;6.47;3.10;;;;;;;;;;5032335;28;20018;-66
2023/08/16 11:38:23;;;;;;;5.80;2.85;;;;;;;;;;5045248;28;20138;-67
2023/08/16 11:40:48;;;;;;;5.60;2.85;;;;;;;;;;5049737;28;20104;-69
2023/08/16 11:43:14;;;;;;;4.32;2.67;;;;;;;;;;5049483;28;20104;-70
2023/08/16 11:45:39;;;;;;;5.40;2.58;;;;;;;;;;5038894;28;20020;-70
2023/08/16 11:48:04;;;;;;;4.82;2.88;;;;;;;;;;5049661;28;20128;-69
2023/08/16 11:50:32;;;;;;;4.88;2.80;;;;;;;;;;5049208;28;20079;-69
2023/08/16 11:52:57;;;;;;;6.38;2.97;;;;;;;;;;5049375;28;20096;-68
2023/08/16 11:55:23;;;;;;;5.28;3.05;;;;;;;;;;5049421;28;20180;-69
2023/08/16 11:57:48;;;;;;;6.95;3.00;;;;;;;;;;5049342;28;20021;-67
2023/08/16 12:00:24;;;;;;;5.78;3.42;;;;;;;;;;5048752;28;20017;-70
2023/08/16 12:02:49;;;;;;;12.80;3.20;;;;;;;;;;5049523;28;20020;-69
2023/08/16 12:05:14;;;;;;;5.60;2.97;;;;;;;;;;5048615;28;20012;-70
2023/08/16 12:07:43;;;;;;;5.25;2.70;;;;;;;;;;5049530;28;20009;-70
2023/08/16 12:10:09;;;;;;;8.90;2.72;;;;;;;;;;5049558;28;20343;-70
2023/08/16 12:12:34;;;;;;;6.28;2.88;;;;;;;;;;5049104;28;20008;-69
2023/08/16 12:14:59;;;;;;;5.55;2.63;;;;;;;;;;5049024;28;20025;-71
2023/08/16 12:17:25;;;;;;;6.83;2.93;;;;;;;;;;5048245;28;20393;-70
2023/08/16 12:19:50;;;;;;;5.60;3.00;;;;;;;;;;5049337;28;20727;-69
2023/08/16 12:22:15;;;;;;;5.45;2.75;;;;;;;;;;5049053;28;20578;-70
2023/08/16 12:24:40;;;;;;;8.57;2.67;;;;;;;;;;5047649;28;20020;-70
2023/08/16 12:27:06;;;;;;;9.25;3.10;;;;;;;;;;5051929;28;20245;-71
2023/08/16 12:29:31;;;;;;;12.55;3.13;;;;;;;;;;5052724;28;20074;-70
2023/08/16 12:31:56;;;;;;;9.35;3.80;;;;;;;;;;5052248;28;20100;-73
2023/08/16 12:34:21;;;;;;;5.60;2.90;;;;;;;;;;5044793;28;20371;-70
2023/08/16 12:36:47;;;;;;;6.50;2.83;;;;;;;;;;5040335;28;20399;-70
2023/08/16 12:39:12;;;;;;;5.65;2.78;;;;;;;;;;5053190;28;20066;-70
2023/08/16 12:41:37;;;;;;;4.53;2.78;;;;;;;;;;5051419;28;20033;-70
2023/08/16 12:44:03;;;;;;;5.00;2.53;;;;;;;;;;5052229;28;20095;-71
2023/08/16 12:46:29;;;;;;;3.58;2.22;;;;;;;;;;5052173;28;20466;-69
2023/08/16 12:48:54;;;;;;;6.35;2.92;;;;;;;;;;5052303;28;20119;-70
2023/08/16 12:51:19;;;;;;;6.57;2.67;;;;;;;;;;5052496;28;20009;-70
2023/08/16 12:53:44;;;;;;;6.07;2.73;;;;;;;;;;5052321;28;20246;-70
2023/08/16 12:56:10;;;;;;;4.97;2.30;;;;;;;;;;5051967;28;20312;-69
2023/08/16 12:58:35;;;;;;;11.90;3.30;;;;;;;;;;5052771;28;20415;-69
2023/08/16 13:01:01;;;;;;;5.03;2.80;;;;;;;;;;5047232;28;20024;-71
2023/08/16 13:03:26;;;;;;;4.43;2.30;;;;;;;;;;5051873;28;20051;-71
2023/08/16 13:05:51;;;;;;;7.00;2.80;;;;;;;;;;5051118;28;20104;-69
2023/08/16 13:08:16;;;;;;;4.03;2.13;;;;;;;;;;5049570;28;20324;-69
2023/08/16 13:10:41;;;;;;;5.75;2.53;;;;;;;;;;5049159;28;20317;-70
2023/08/16 13:13:07;;;;;;;5.07;2.40;;;;;;;;;;5052331;28;20051;-69
2023/08/16 13:15:33;;;;;;;4.28;2.50;;;;;;;;;;5051575;28;20258;-72
2023/08/16 13:17:58;;;;;;;5.20;2.70;;;;;;;;;;5050613;28;20023;-71
2023/08/16 13:20:25;;;;;;;8.37;2.50;;;;;;;;;;5043503;28;20025;-70
2023/08/16 13:22:50;;;;;;;7.78;2.05;;;;;;;;;;5050435;28;20723;-66
2023/08/16 13:25:15;;;;;;;5.20;2.42;;;;;;;;;;5051488;28;20025;-71
2023/08/16 13:27:41;;;;;;;8.10;2.80;;;;;;;;;;5045223;28;20478;-71
2023/08/16 13:30:06;;;;;;;3.70;2.23;;;;;;;;;;5043121;28;20731;-71
2023/08/16 13:32:32;;;;;;;5.22;2.80;;;;;;;;;;5050909;28;20281;-70
2023/08/16 13:34:58;;;;;;;5.95;2.60;;;;;;;;;;5043983;28;20065;-69
2023/08/16 13:37:23;;;;;;;5.82;2.60;;;;;;;;;;5042272;28;20016;-68
2023/08/16 13:39:48;;;;;;;4.15;2.50;;;;;;;;;;5050566;28;20013;-68
2023/08/16 13:42:13;;;;;;;6.60;2.50;;;;;;;;;;5051284;28;20035;-69
2023/08/16 13:44:41;;;;;;;8.82;2.90;;;;;;;;;;5051439;28;20025;-69
2023/08/16 13:47:06;;;;;;;5.30;2.63;;;;;;;;;;5050764;28;20021;-70
2023/08/16 13:49:32;;;;;;;13.32;3.08;;;;;;;;;;5051495;28;20013;-68
2023/08/16 13:51:57;;;;;;;6.07;2.90;;;;;;;;;;5050846;28;20108;-69
2023/08/16 13:54:22;;;;;;;4.40;2.00;;;;;;;;;;5050818;28;20389;-70
2023/08/16 13:56:48;;;;;;;4.50;2.10;;;;;;;;;;5052240;22;20046;-70
2023/08/16 13:59:14;;;;;;;5.38;2.55;;;;;;;;;;5028871;28;20021;-68
2023/08/16 14:01:40;;;;;;;7.63;2.25;;;;;;;;;;5026897;28;20037;-66
2023/08/16 14:04:06;;;;;;;6.70;2.80;;;;;;;;;;5027462;28;20009;-69
2023/08/16 14:06:32;;;;;;;5.72;2.40;;;;;;;;;;5028494;28;20032;-67
2023/08/16 14:08:57;;;;;;;4.65;2.17;;;;;;;;;;5030349;28;20346;-69
2023/08/16 14:11:22;;;;;;;8.13;2.72;;;;;;;;;;5041942;28;20483;-69
2023/08/16 14:13:48;;;;;;;5.37;2.07;;;;;;;;;;5028750;28;20055;-69
2023/08/16 14:16:14;;;;;;;4.47;2.05;;;;;;;;;;5027705;28;20728;-68
2023/08/16 14:18:39;;;;;;;4.10;2.17;;;;;;;;;;5031068;28;20052;-69
2023/08/16 14:21:04;;;;;;;5.18;2.38;;;;;;;;;;5033228;28;20101;-70
2023/08/16 14:23:30;;;;;;;5.25;2.22;;;;;;;;;;5029237;28;20601;-68
2023/08/16 14:25:56;;;;;;;9.38;2.50;;;;;;;;;;5037645;28;20135;-69